createdAt,value
2023-07-24T00:01:00.769Z,99.90
2023-07-24T00:03:27.254Z,99.90
2023-07-24T00:05:53.519Z,98.10
2023-07-24T00:08:19.985Z,97.50
2023-07-24T00:10:46.242Z,99.90
2023-07-24T00:13:12.505Z,99.90
2023-07-24T00:15:39.507Z,99.90
2023-07-24T00:18:05.798Z,99.90
2023-07-24T00:20:32.041Z,99.90
2023-07-24T00:22:58.312Z,99.90
2023-07-24T00:25:24.638Z,99.90
2023-07-24T00:27:51.064Z,99.90
2023-07-24T00:30:17.356Z,99.90
2023-07-24T00:32:43.645Z,99.90
2023-07-24T00:35:09.967Z,99.90
2023-07-24T00:37:37.173Z,99.90
2023-07-24T00:40:04.413Z,99.90
2023-07-24T00:42:30.731Z,99.90
2023-07-24T00:44:57.030Z,99.90
2023-07-24T00:47:23.266Z,99.90
2023-07-24T00:49:49.585Z,99.90
2023-07-24T00:52:16.232Z,99.90
2023-07-24T00:54:42.506Z,99.90
2023-07-24T00:57:08.753Z,99.90
2023-07-24T00:59:34.998Z,99.90
2023-07-24T01:02:01.291Z,99.90
2023-07-24T01:04:27.558Z,99.90
2023-07-24T01:06:54.288Z,99.90
2023-07-24T01:09:20.547Z,99.90
2023-07-24T01:13:19.265Z,99.90
2023-07-24T01:16:03.776Z,99.90
2023-07-24T01:18:30.877Z,99.90
2023-07-24T01:20:57.742Z,99.90
2023-07-24T01:26:56.234Z,99.90
2023-07-24T01:29:22.518Z,99.90
2023-07-24T01:31:48.799Z,99.90
2023-07-24T01:34:15.109Z,99.90
2023-07-24T01:36:41.328Z,99.90
2023-07-24T01:39:07.564Z,99.90
2023-07-24T01:41:33.801Z,99.90
2023-07-24T01:44:00.328Z,99.90
2023-07-24T01:46:26.550Z,99.90
2023-07-24T01:48:53.040Z,99.90
2023-07-24T01:51:19.317Z,99.90
2023-07-24T01:53:45.763Z,99.90
2023-07-24T01:56:11.974Z,99.90
2023-07-24T01:58:38.190Z,99.90
2023-07-24T02:01:04.452Z,99.90
2023-07-24T02:03:30.840Z,99.90
2023-07-24T02:05:57.138Z,99.90
2023-07-24T02:08:23.381Z,99.90
2023-07-24T02:10:51.284Z,99.90
2023-07-24T02:13:17.513Z,99.90
2023-07-24T02:15:43.755Z,99.90
2023-07-24T02:18:09.997Z,99.90
2023-07-24T02:20:36.446Z,99.90
2023-07-24T02:23:02.771Z,99.90
2023-07-24T02:25:29.544Z,99.90
2023-07-24T02:27:55.809Z,99.90
2023-07-24T02:30:22.245Z,99.90
2023-07-24T02:32:48.519Z,99.90
2023-07-24T02:35:14.981Z,99.90
2023-07-24T02:37:41.230Z,99.90
2023-07-24T02:40:08.547Z,99.90
2023-07-24T02:42:34.815Z,99.90
2023-07-24T02:45:01.171Z,99.90
2023-07-24T02:47:27.436Z,99.90
2023-07-24T02:49:53.708Z,99.90
2023-07-24T02:52:19.945Z,99.90
2023-07-24T02:54:46.284Z,99.90
2023-07-24T02:57:12.499Z,99.90
2023-07-24T02:59:38.749Z,99.90
2023-07-24T03:02:05.309Z,99.90
2023-07-24T03:04:32.457Z,99.90
2023-07-24T03:06:58.739Z,99.90
2023-07-24T03:09:24.991Z,99.90
2023-07-24T03:11:51.297Z,99.90
2023-07-24T03:14:17.529Z,99.90
2023-07-24T03:16:43.853Z,99.90
2023-07-24T03:19:10.305Z,99.90
2023-07-24T03:21:36.614Z,99.90
2023-07-24T03:24:03.119Z,99.90
2023-07-24T03:26:29.649Z,99.90
2023-07-24T03:28:56.196Z,99.90
2023-07-24T03:31:22.691Z,99.90
2023-07-24T03:33:49.000Z,99.90
2023-07-24T03:36:15.432Z,99.90
2023-07-24T03:38:41.856Z,99.90
2023-07-24T03:41:08.104Z,99.90
2023-07-24T03:43:34.338Z,99.90
2023-07-24T03:46:00.614Z,99.90
2023-07-24T03:48:26.815Z,99.90
2023-07-24T03:50:59.272Z,99.90
2023-07-24T03:53:25.490Z,99.90
2023-07-24T03:55:51.828Z,99.90
2023-07-24T03:58:18.107Z,96.50
2023-07-24T04:00:44.871Z,96.90
2023-07-24T04:03:11.171Z,94.40
2023-07-24T04:05:37.762Z,86.90
2023-07-24T04:08:04.438Z,92.00
2023-07-24T04:10:31.416Z,95.70
2023-07-24T04:12:57.844Z,92.80
2023-07-24T04:15:24.192Z,93.30
2023-07-24T04:17:50.439Z,95.00
2023-07-24T04:20:17.101Z,96.40
2023-07-24T04:22:43.326Z,95.40
2023-07-24T04:25:09.622Z,96.30
2023-07-24T04:27:35.916Z,94.50
2023-07-24T04:30:02.227Z,99.90
2023-07-24T04:32:28.491Z,99.60
2023-07-24T04:34:54.735Z,94.40
2023-07-24T04:37:20.947Z,91.80
2023-07-24T04:39:47.163Z,90.80
2023-07-24T04:42:13.635Z,91.30
2023-07-24T04:44:39.880Z,88.40
2023-07-24T04:47:06.227Z,86.60
2023-07-24T04:49:33.251Z,90.60
2023-07-24T04:51:59.872Z,89.80
2023-07-24T04:54:26.101Z,91.70
2023-07-24T04:56:52.354Z,94.20
2023-07-24T04:59:18.635Z,92.80
2023-07-24T05:01:44.879Z,93.20
2023-07-24T05:04:11.185Z,93.80
2023-07-24T05:06:39.010Z,92.10
2023-07-24T05:09:05.453Z,92.20
2023-07-24T05:11:31.672Z,92.00
2023-07-24T05:13:58.051Z,91.70
2023-07-24T05:16:24.361Z,91.20
2023-07-24T05:18:50.578Z,91.70
2023-07-24T05:21:16.806Z,87.80
2023-07-24T05:23:43.120Z,93.30
2023-07-24T05:26:09.346Z,90.60
2023-07-24T05:28:35.580Z,92.30
2023-07-24T05:31:05.144Z,92.60
2023-07-24T05:33:31.805Z,90.70
2023-07-24T05:35:59.700Z,88.00
2023-07-24T05:38:26.088Z,84.40
2023-07-24T05:40:56.727Z,86.40
2023-07-24T05:43:22.944Z,89.40
2023-07-24T05:45:50.259Z,85.30
2023-07-24T05:48:16.548Z,85.20
2023-07-24T05:50:44.176Z,85.30
2023-07-24T05:53:10.478Z,85.50
2023-07-24T05:55:36.715Z,83.10
2023-07-24T05:58:02.957Z,81.10
2023-07-24T06:00:29.312Z,81.00
2023-07-24T06:02:57.224Z,83.40
2023-07-24T06:05:23.772Z,82.60
2023-07-24T06:07:50.047Z,80.40
2023-07-24T06:10:16.354Z,74.90
2023-07-24T06:12:42.594Z,75.90
2023-07-24T06:15:09.479Z,78.30
2023-07-24T06:17:35.783Z,79.00
2023-07-24T06:20:02.586Z,80.80
2023-07-24T06:22:28.839Z,78.90
2023-07-24T06:24:55.193Z,78.00
2023-07-24T06:27:21.546Z,78.50
2023-07-24T06:29:49.469Z,80.70
2023-07-24T06:32:19.423Z,82.00
2023-07-24T06:34:45.674Z,85.30
2023-07-24T06:37:22.284Z,86.20
2023-07-24T06:39:49.691Z,84.40
2023-07-24T06:42:16.029Z,86.90
2023-07-24T06:44:42.350Z,83.90
2023-07-24T06:47:08.644Z,84.90
2023-07-24T06:49:34.934Z,88.30
2023-07-24T06:52:01.392Z,82.80
2023-07-24T06:54:27.606Z,83.70
2023-07-24T06:56:53.881Z,83.80
2023-07-24T06:59:20.234Z,80.40
2023-07-24T07:01:46.463Z,78.70
2023-07-24T07:04:12.734Z,76.40
2023-07-24T07:06:39.478Z,77.20
2023-07-24T07:09:06.939Z,73.20
2023-07-24T07:11:33.184Z,69.90
2023-07-24T07:13:59.452Z,67.80
2023-07-24T07:16:25.716Z,70.10
2023-07-24T07:18:51.986Z,65.30
2023-07-24T07:21:18.241Z,63.30
2023-07-24T07:23:47.181Z,60.60
2023-07-24T07:26:13.893Z,59.10
2023-07-24T07:28:40.181Z,56.40
2023-07-24T07:31:06.567Z,55.20
2023-07-24T07:33:32.887Z,56.60
2023-07-24T07:35:59.899Z,55.00
2023-07-24T07:38:26.227Z,55.60
2023-07-24T07:40:52.538Z,52.10
2023-07-24T07:43:18.932Z,49.10
2023-07-24T07:45:45.235Z,47.40
2023-07-24T07:48:11.482Z,45.80
2023-07-24T07:50:37.781Z,44.80
2023-07-24T07:53:04.078Z,42.20
2023-07-24T07:55:30.493Z,43.40
2023-07-24T07:57:56.751Z,42.60
2023-07-24T08:00:23.027Z,41.00
2023-07-24T08:02:49.540Z,40.30
2023-07-24T08:05:20.991Z,40.00
2023-07-24T08:07:48.117Z,38.70
2023-07-24T08:10:15.615Z,38.10
2023-07-24T08:12:42.005Z,36.00
2023-07-24T08:15:09.681Z,36.40
2023-07-24T09:46:11.803Z,34.50
2023-07-24T09:51:25.182Z,34.70
2023-07-24T09:53:59.149Z,37.70
2023-07-24T09:56:35.073Z,38.60
2023-07-24T09:59:11.246Z,39.90
2023-07-24T10:01:38.088Z,39.30
2023-07-24T10:04:04.627Z,38.40
2023-07-24T10:06:32.634Z,35.50
2023-07-24T10:08:59.435Z,34.10
2023-07-24T10:11:26.099Z,33.40
2023-07-24T10:13:53.036Z,34.00
2023-07-24T10:16:19.485Z,34.00
2023-07-24T10:18:46.418Z,35.90
2023-07-24T10:21:12.897Z,35.70
2023-07-24T10:23:43.837Z,37.50
2023-07-24T10:26:10.363Z,38.40
2023-07-24T10:28:42.524Z,39.80
2023-07-24T10:31:31.599Z,41.80
2023-07-24T10:34:07.773Z,41.20
2023-07-24T10:36:37.311Z,40.40
2023-07-24T10:39:13.074Z,41.50
2023-07-24T10:41:40.524Z,42.40
2023-07-24T10:44:07.022Z,42.40
2023-07-24T10:46:52.038Z,42.90
2023-07-24T10:49:22.343Z,43.90
2023-07-24T10:51:58.966Z,41.30
2023-07-24T10:54:25.588Z,42.30
2023-07-24T10:57:03.009Z,44.30
2023-07-24T10:59:39.741Z,44.70
2023-07-24T11:02:07.106Z,45.30
2023-07-24T11:04:34.153Z,46.00
2023-07-24T11:07:01.485Z,46.50
2023-07-24T11:09:44.239Z,46.70
2023-07-24T11:12:17.366Z,47.40
2023-07-24T11:14:51.240Z,47.10
2023-07-24T11:17:17.905Z,45.80
2023-07-24T11:19:44.338Z,48.00
2023-07-24T11:22:10.837Z,50.00
2023-07-24T11:24:44.406Z,46.30
2023-07-24T11:27:15.445Z,41.20
2023-07-24T11:29:51.096Z,40.80
2023-07-24T11:32:20.946Z,40.70
2023-07-24T11:34:50.722Z,40.90
2023-07-24T11:37:17.102Z,40.70
2023-07-24T11:39:43.554Z,41.60
2023-07-24T11:42:10.032Z,41.60
2023-07-24T11:44:36.357Z,42.50
2023-07-24T11:47:06.112Z,42.60
2023-07-24T11:49:32.735Z,42.20
2023-07-24T11:52:06.771Z,41.50
2023-07-24T11:54:36.176Z,41.60
2023-07-24T11:57:02.616Z,40.90
2023-07-24T11:59:28.902Z,41.80
2023-07-24T12:01:55.242Z,41.20
2023-07-24T12:04:21.649Z,40.30
2023-07-24T12:06:48.334Z,40.70
2023-07-24T12:09:14.880Z,41.10
2023-07-24T12:11:45.445Z,39.60
2023-07-24T12:14:13.367Z,39.20
2023-07-24T12:16:43.012Z,37.30
2023-07-24T12:19:09.467Z,38.40
2023-07-24T12:21:35.829Z,37.70
2023-07-24T12:24:02.133Z,38.40
2023-07-24T12:26:28.660Z,38.60
2023-07-24T12:28:55.337Z,38.70
2023-07-24T12:31:21.698Z,40.60
2023-07-24T12:33:48.112Z,40.20
2023-07-24T12:36:14.477Z,40.90
2023-07-24T12:38:41.007Z,40.90
2023-07-24T12:41:07.537Z,41.30
2023-07-24T12:43:34.225Z,41.80
2023-07-24T12:46:00.536Z,40.70
2023-07-24T12:48:26.800Z,40.70
2023-07-24T12:50:53.219Z,39.80
2023-07-24T12:53:20.881Z,41.20
2023-07-24T12:55:57.541Z,41.40
2023-07-24T12:58:24.046Z,41.20
2023-07-24T13:00:50.512Z,43.10
2023-07-24T13:03:17.130Z,39.70
2023-07-24T13:05:43.837Z,42.40
2023-07-24T13:08:10.562Z,41.70
2023-07-24T13:10:37.731Z,41.50
2023-07-24T13:13:04.479Z,42.20
2023-07-24T13:15:32.480Z,41.20
2023-07-24T13:18:01.605Z,43.10
2023-07-24T13:20:34.249Z,43.60
2023-07-24T13:23:00.850Z,41.90
2023-07-24T13:25:27.170Z,43.90
2023-07-24T13:27:53.556Z,41.60
2023-07-24T13:30:19.917Z,41.30
2023-07-24T13:32:46.372Z,42.20
2023-07-24T13:35:12.820Z,41.30
2023-07-24T13:37:39.213Z,41.20
2023-07-24T13:40:06.850Z,41.40
2023-07-24T13:42:33.148Z,42.90
2023-07-24T13:44:59.537Z,40.00
2023-07-24T13:47:26.210Z,40.50
2023-07-24T13:49:52.547Z,39.60
2023-07-24T13:52:18.824Z,38.70
2023-07-24T13:54:45.150Z,39.40
2023-07-24T13:57:13.211Z,38.90
2023-07-24T13:59:40.197Z,39.30
2023-07-24T14:02:07.176Z,39.30
2023-07-24T14:04:33.617Z,39.00
2023-07-24T14:07:00.001Z,38.20
2023-07-24T14:09:26.284Z,39.80
2023-07-24T14:11:52.576Z,38.20
2023-07-24T14:14:19.090Z,37.70
2023-07-24T14:16:45.554Z,36.50
2023-07-24T14:19:11.882Z,37.70
2023-07-24T14:21:38.307Z,38.30
2023-07-24T14:24:05.059Z,39.60
2023-07-24T14:26:31.329Z,38.50
2023-07-24T14:28:57.727Z,38.70
2023-07-24T14:31:25.293Z,36.70
2023-07-24T14:33:51.688Z,37.80
2023-07-24T14:36:18.058Z,38.00
2023-07-24T14:38:44.354Z,37.70
2023-07-24T14:41:13.221Z,37.60
2023-07-24T14:43:44.577Z,38.40
2023-07-24T14:46:11.145Z,39.60
2023-07-24T14:48:37.580Z,39.80
2023-07-24T14:51:04.319Z,39.10
2023-07-24T14:53:30.667Z,39.80
2023-07-24T14:55:56.980Z,40.10
2023-07-24T14:58:23.278Z,41.30
2023-07-24T15:00:49.610Z,40.30
2023-07-24T15:03:16.000Z,40.20
2023-07-24T15:05:42.354Z,40.90
2023-07-24T15:08:08.696Z,41.70
2023-07-24T15:10:35.069Z,41.70
2023-07-24T15:13:01.607Z,41.90
2023-07-24T15:15:28.142Z,40.90
2023-07-24T15:17:56.301Z,41.10
2023-07-24T15:20:22.920Z,42.10
2023-07-24T15:22:49.251Z,41.50
2023-07-24T15:25:16.218Z,42.70
2023-07-24T15:27:42.993Z,41.80
2023-07-24T15:30:10.251Z,43.20
2023-07-24T15:32:36.670Z,42.90
2023-07-24T15:35:03.351Z,44.90
2023-07-24T15:37:32.704Z,45.50
2023-07-24T15:39:59.457Z,45.30
2023-07-24T15:42:26.013Z,46.50
2023-07-24T15:44:53.152Z,45.60
2023-07-24T15:47:19.586Z,46.20
2023-07-24T15:49:45.967Z,46.70
2023-07-24T15:52:12.433Z,45.70
2023-07-24T15:54:39.101Z,45.60
2023-07-24T15:57:05.633Z,45.60
2023-07-24T15:59:32.090Z,45.80
2023-07-24T16:01:58.344Z,46.50
2023-07-24T16:04:24.763Z,46.70
2023-07-24T16:06:51.236Z,45.70
2023-07-24T16:09:17.929Z,46.20
2023-07-24T16:11:46.139Z,47.50
2023-07-24T16:14:13.577Z,48.70
2023-07-24T16:16:39.879Z,47.90
2023-07-24T16:19:16.957Z,47.20
2023-07-24T16:21:44.201Z,49.60
2023-07-24T16:24:10.861Z,49.00
2023-07-24T16:26:38.732Z,50.40
2023-07-24T16:29:05.584Z,49.40
2023-07-24T16:31:35.835Z,49.20
2023-07-24T16:34:03.117Z,49.80
2023-07-24T16:36:34.278Z,50.40
2023-07-24T16:39:00.896Z,52.00
2023-07-24T16:41:27.629Z,51.40
2023-07-24T16:43:54.488Z,54.30
2023-07-24T16:48:50.911Z,56.00
2023-07-24T16:51:17.403Z,60.60
2023-07-24T16:53:43.951Z,68.70
2023-07-24T16:56:10.394Z,63.90
2023-07-24T16:58:36.814Z,67.20
2023-07-24T17:01:03.536Z,73.20
2023-07-24T17:03:29.969Z,70.40
2023-07-24T17:05:56.666Z,71.10
2023-07-24T17:28:56.749Z,62.70
2023-07-24T17:31:23.792Z,71.00
2023-07-24T17:33:50.245Z,72.30
2023-07-24T17:36:17.062Z,69.90
2023-07-24T17:38:43.344Z,65.00
2023-07-24T17:41:10.053Z,65.70
2023-07-24T17:43:36.506Z,67.40
2023-07-24T17:46:03.523Z,67.20
2023-07-24T17:48:29.954Z,66.20
2023-07-24T17:50:57.735Z,69.10
2023-07-24T17:53:25.097Z,66.40
2023-07-24T17:55:51.874Z,69.30
2023-07-24T17:58:18.687Z,69.90
2023-07-24T18:00:46.478Z,68.30
2023-07-24T18:03:13.440Z,67.30
2023-07-24T18:05:40.179Z,65.50
2023-07-24T18:08:06.861Z,65.70
2023-07-24T18:10:34.161Z,64.70
2023-07-24T18:13:00.780Z,65.40
2023-07-24T18:15:27.057Z,67.20
2023-07-24T18:17:53.622Z,69.20
2023-07-24T18:20:19.993Z,69.60
2023-07-24T18:22:46.867Z,68.30
2023-07-24T18:25:13.141Z,69.30
2023-07-24T18:27:39.488Z,69.70
2023-07-24T18:30:07.368Z,69.30
2023-07-24T18:32:33.855Z,69.20
2023-07-24T18:35:00.581Z,70.90
2023-07-24T18:37:26.896Z,76.90
2023-07-24T18:39:53.252Z,77.50
2023-07-24T18:42:19.505Z,76.50
2023-07-24T18:44:45.887Z,79.10
2023-07-24T18:47:12.265Z,78.90
2023-07-24T18:49:38.555Z,80.90
2023-07-24T18:52:05.605Z,80.60
2023-07-24T18:54:32.219Z,80.80
2023-07-24T18:56:58.557Z,77.40
2023-07-24T18:59:24.844Z,81.10
2023-07-24T19:01:51.642Z,79.10
2023-07-24T19:04:18.077Z,81.80
2023-07-24T19:06:44.457Z,80.90
2023-07-24T19:09:11.098Z,82.50
2023-07-24T19:11:37.442Z,89.70
2023-07-24T19:14:03.774Z,92.20
2023-07-24T19:16:30.519Z,93.00
2023-07-24T19:18:58.797Z,93.90
2023-07-24T19:21:25.137Z,95.00
2023-07-24T19:23:51.953Z,95.70
2023-07-24T19:26:18.440Z,96.10
2023-07-24T19:28:44.944Z,97.30
2023-07-24T19:31:11.393Z,97.50
2023-07-24T19:33:37.782Z,96.20
2023-07-24T19:36:04.978Z,96.90
2023-07-24T19:38:32.284Z,98.50
2023-07-24T19:41:00.148Z,99.00
2023-07-24T19:43:26.705Z,98.50
2023-07-24T19:45:53.590Z,99.90
2023-07-24T19:48:24.557Z,99.40
2023-07-24T19:50:55.051Z,99.90
2023-07-24T19:53:22.068Z,99.90
2023-07-24T19:55:49.136Z,99.90
2023-07-24T19:58:30.796Z,99.90
2023-07-24T20:00:59.987Z,99.90
2023-07-24T20:03:26.616Z,99.90
2023-07-24T20:06:01.429Z,99.90
2023-07-24T20:08:31.423Z,99.90
2023-07-24T20:11:00.517Z,99.90
2023-07-24T20:13:28.282Z,99.90
2023-07-24T20:15:55.483Z,99.90
2023-07-24T20:18:22.070Z,99.90
2023-07-24T20:20:49.358Z,99.90
2023-07-24T20:23:16.315Z,99.90
2023-07-24T20:25:46.529Z,99.90
2023-07-24T20:28:13.199Z,99.90
2023-07-24T20:30:40.153Z,99.90
2023-07-24T20:33:07.572Z,99.90
2023-07-24T20:35:34.446Z,99.90
2023-07-24T20:38:05.246Z,99.90
2023-07-24T20:40:32.946Z,99.90
2023-07-24T20:43:00.236Z,99.90
2023-07-24T20:45:27.125Z,99.90
2023-07-24T20:47:54.109Z,99.90
2023-07-24T20:50:20.763Z,99.90
2023-07-24T20:52:47.927Z,99.90
2023-07-24T20:55:14.666Z,99.90
2023-07-24T20:57:41.749Z,99.90
2023-07-24T21:00:09.106Z,99.90
2023-07-24T21:02:35.658Z,99.90
2023-07-24T21:05:04.282Z,99.90
2023-07-24T21:07:30.902Z,99.90
2023-07-24T21:09:59.120Z,99.90
2023-07-24T21:12:25.882Z,99.90
2023-07-24T21:14:52.569Z,99.90
2023-07-24T21:17:19.775Z,99.90
2023-07-24T21:19:46.950Z,99.90
2023-07-24T21:22:14.071Z,99.90
2023-07-24T21:24:40.518Z,99.90
2023-07-24T21:27:07.208Z,96.50
2023-07-24T21:29:34.659Z,92.70
2023-07-24T21:32:01.263Z,90.80
2023-07-24T21:34:27.654Z,90.50
2023-07-24T21:36:54.090Z,89.50
2023-07-24T21:39:21.103Z,87.90
2023-07-24T21:41:47.400Z,87.20
2023-07-24T21:44:13.780Z,85.50
2023-07-24T21:46:40.093Z,86.20
2023-07-24T21:49:06.425Z,87.20
2023-07-24T21:51:33.268Z,86.60
2023-07-24T21:54:00.206Z,86.10
2023-07-24T21:56:26.592Z,87.00
2023-07-24T21:58:55.534Z,88.00
2023-07-24T22:01:21.954Z,87.70
2023-07-24T22:03:48.422Z,88.40
2023-07-24T22:06:14.746Z,89.10
2023-07-24T22:08:41.308Z,90.20
2023-07-24T22:11:11.253Z,90.70
2023-07-24T22:13:37.658Z,90.60
2023-07-24T22:16:04.551Z,90.50
2023-07-24T22:18:30.811Z,90.00
2023-07-24T22:20:57.207Z,90.40
2023-07-24T22:23:24.427Z,90.50
2023-07-24T22:25:51.015Z,90.50
2023-07-24T22:28:17.454Z,91.10
2023-07-24T22:30:43.853Z,90.60
2023-07-24T22:33:10.140Z,91.20
2023-07-24T22:35:36.618Z,90.50
2023-07-24T22:38:02.938Z,91.20
2023-07-24T22:40:29.517Z,90.30
2023-07-24T22:42:55.805Z,90.50
2023-07-24T22:45:22.372Z,90.70
2023-07-24T22:47:49.000Z,89.80
2023-07-24T22:50:15.636Z,90.10
2023-07-24T22:52:42.141Z,90.70
2023-07-24T22:55:08.533Z,90.50
2023-07-24T22:57:34.905Z,90.40
2023-07-24T23:00:01.179Z,90.70
2023-07-24T23:02:27.482Z,90.30
2023-07-24T23:04:53.770Z,90.20
2023-07-24T23:07:20.067Z,90.10
2023-07-24T23:09:46.301Z,90.40
2023-07-24T23:12:13.100Z,90.40
2023-07-24T23:14:39.467Z,90.50
2023-07-24T23:17:06.048Z,90.60
2023-07-24T23:19:32.306Z,90.40
2023-07-24T23:21:58.714Z,90.60
2023-07-24T23:24:25.188Z,90.50
2023-07-24T23:26:51.692Z,90.90
2023-07-24T23:29:18.200Z,91.20
2023-07-24T23:31:44.670Z,90.90
2023-07-24T23:34:10.999Z,91.30
2023-07-24T23:36:37.451Z,91.40
2023-07-24T23:39:05.257Z,91.70
2023-07-24T23:41:31.955Z,92.00
2023-07-24T23:43:58.699Z,92.30
2023-07-24T23:46:25.217Z,92.80
2023-07-24T23:48:52.570Z,93.60
2023-07-24T23:51:19.783Z,93.70
2023-07-24T23:53:46.267Z,94.40
2023-07-24T23:56:12.844Z,94.70
2023-07-24T23:58:39.191Z,95.20
